createdAt,value
2023-05-12T00:00:00.520Z,12.04
2023-05-12T00:01:00.540Z,12.04
2023-05-12T00:02:00.521Z,12.04
2023-05-12T00:03:00.663Z,12.04
2023-05-12T00:04:00.682Z,12.04
2023-05-12T00:05:00.591Z,12.15
2023-05-12T00:06:00.518Z,12.15
2023-05-12T00:07:00.547Z,12.15
2023-05-12T00:08:00.515Z,12.15
2023-05-12T00:09:00.529Z,12.15
2023-05-12T00:10:00.667Z,12.16
2023-05-12T00:11:00.566Z,12.16
2023-05-12T00:12:01.033Z,12.16
2023-05-12T00:13:01.093Z,12.16
2023-05-12T00:14:00.578Z,12.16
2023-05-12T00:15:00.555Z,12.22
2023-05-12T00:16:00.936Z,12.22
2023-05-12T00:17:01.725Z,12.22
2023-05-12T00:18:00.594Z,12.22
2023-05-12T00:19:00.636Z,12.22
2023-05-12T00:20:00.573Z,12.21
2023-05-12T00:21:00.549Z,12.21
2023-05-12T00:22:00.520Z,12.21
2023-05-12T00:23:00.539Z,12.21
2023-05-12T00:24:00.516Z,12.21
2023-05-12T00:25:00.507Z,12.27
2023-05-12T00:26:00.556Z,12.27
2023-05-12T00:27:00.565Z,12.27
2023-05-12T00:28:00.530Z,12.27
2023-05-12T00:29:00.558Z,12.27
2023-05-12T00:30:00.563Z,12.31
2023-05-12T00:31:01.873Z,12.31
2023-05-12T00:32:00.664Z,12.31
2023-05-12T00:33:00.632Z,12.31
2023-05-12T00:34:00.558Z,12.31
2023-05-12T00:35:00.557Z,12.33
2023-05-12T00:36:00.528Z,12.33
2023-05-12T00:37:00.521Z,12.33
2023-05-12T00:38:00.510Z,12.33
2023-05-12T00:39:00.552Z,12.33
2023-05-12T00:40:00.512Z,12.31
2023-05-12T00:41:00.560Z,12.31
2023-05-12T00:42:00.586Z,12.31
2023-05-12T00:43:00.529Z,12.31
2023-05-12T00:44:01.059Z,12.31
2023-05-12T00:45:00.738Z,12.35
2023-05-12T00:46:01.327Z,12.35
2023-05-12T00:47:00.585Z,12.35
2023-05-12T00:48:00.776Z,12.35
2023-05-12T00:49:00.605Z,12.35
2023-05-12T00:50:01.349Z,12.34
2023-05-12T00:51:01.519Z,12.34
2023-05-12T00:52:01.440Z,12.34
2023-05-12T00:53:00.649Z,12.34
2023-05-12T00:54:01.160Z,12.34
2023-05-12T00:55:00.795Z,12.33
2023-05-12T00:56:00.544Z,12.33
2023-05-12T00:57:00.767Z,12.33
2023-05-12T00:58:00.801Z,12.33
2023-05-12T00:59:00.516Z,12.33
2023-05-12T01:00:00.568Z,12.54
2023-05-12T01:01:00.575Z,12.54
2023-05-12T01:02:00.628Z,12.54
2023-05-12T01:03:00.687Z,12.54
2023-05-12T01:04:01.074Z,12.54
2023-05-12T01:05:00.566Z,12.69
2023-05-12T01:06:08.416Z,12.69
2023-05-12T01:07:05.065Z,12.69
2023-05-12T01:08:01.733Z,12.69
2023-05-12T01:09:00.564Z,12.69
2023-05-12T01:10:00.558Z,12.66
2023-05-12T01:11:00.505Z,12.66
2023-05-12T01:12:00.514Z,12.66
2023-05-12T01:13:00.509Z,12.66
2023-05-12T01:14:00.557Z,12.66
2023-05-12T01:15:00.592Z,12.67
2023-05-12T01:16:01.459Z,12.67
2023-05-12T01:17:01.960Z,12.67
2023-05-12T01:18:01.118Z,12.67
2023-05-12T01:19:02.918Z,12.67
2023-05-12T01:20:01.261Z,12.70
2023-05-12T01:21:00.921Z,12.70
2023-05-12T01:22:00.577Z,12.70
2023-05-12T01:23:01.074Z,12.70
2023-05-12T01:24:01.749Z,12.70
2023-05-12T01:25:01.839Z,12.73
2023-05-12T01:26:05.962Z,12.73
2023-05-12T01:27:01.078Z,12.73
2023-05-12T01:28:01.150Z,12.73
2023-05-12T01:29:01.532Z,12.73
2023-05-12T01:30:01.755Z,12.56
2023-05-12T01:31:02.268Z,12.56
2023-05-12T01:32:00.809Z,12.56
2023-05-12T01:33:00.646Z,12.56
2023-05-12T01:34:00.520Z,12.56
2023-05-12T01:35:00.549Z,12.66
2023-05-12T01:36:00.550Z,12.66
2023-05-12T01:37:00.583Z,12.66
2023-05-12T01:38:00.564Z,12.66
2023-05-12T01:39:00.521Z,12.66
2023-05-12T01:40:00.609Z,12.61
2023-05-12T01:41:00.552Z,12.61
2023-05-12T01:42:00.522Z,12.61
2023-05-12T01:43:00.590Z,12.61
2023-05-12T01:44:00.565Z,12.61
2023-05-12T01:45:00.542Z,12.30
2023-05-12T01:46:00.551Z,12.30
2023-05-12T01:47:00.552Z,12.30
2023-05-12T01:48:00.614Z,12.30
2023-05-12T01:49:00.516Z,12.30
2023-05-12T01:50:00.546Z,12.48
2023-05-12T01:51:00.544Z,12.48
2023-05-12T01:52:00.511Z,12.48
2023-05-12T01:53:00.554Z,12.48
2023-05-12T01:54:00.627Z,12.48
2023-05-12T01:55:00.536Z,12.54
2023-05-12T01:56:00.526Z,12.54
2023-05-12T01:57:00.517Z,12.54
2023-05-12T01:58:00.514Z,12.54
2023-05-12T01:59:00.592Z,12.54
2023-05-12T02:00:00.541Z,12.45
2023-05-12T02:01:00.555Z,12.45
2023-05-12T02:02:00.541Z,12.45
2023-05-12T02:03:00.587Z,12.45
2023-05-12T02:04:00.649Z,12.45
2023-05-12T02:05:00.504Z,12.52
2023-05-12T02:06:00.528Z,12.52
2023-05-12T02:07:00.566Z,12.52
2023-05-12T02:08:00.510Z,12.52
2023-05-12T02:09:00.514Z,12.52
2023-05-12T02:10:00.531Z,12.28
2023-05-12T02:11:04.202Z,12.28
2023-05-12T02:12:00.604Z,12.28
2023-05-12T02:13:00.511Z,12.28
2023-05-12T02:14:00.516Z,12.28
2023-05-12T02:15:00.518Z,12.24
2023-05-12T02:16:00.781Z,12.24
2023-05-12T02:17:00.540Z,12.24
2023-05-12T02:18:00.637Z,12.24
2023-05-12T02:19:00.596Z,12.24
2023-05-12T02:20:00.516Z,12.08
2023-05-12T02:21:00.600Z,12.08
2023-05-12T02:22:00.518Z,12.08
2023-05-12T02:23:00.550Z,12.08
2023-05-12T02:24:00.516Z,12.08
2023-05-12T02:25:00.581Z,12.15
2023-05-12T02:26:00.553Z,12.15
2023-05-12T02:27:00.521Z,12.15
2023-05-12T02:28:00.522Z,12.15
2023-05-12T02:29:00.505Z,12.15
2023-05-12T02:30:00.521Z,12.11
2023-05-12T02:31:00.509Z,12.11
2023-05-12T02:32:00.576Z,12.11
2023-05-12T02:33:00.623Z,12.11
2023-05-12T02:34:00.517Z,12.11
2023-05-12T02:35:00.542Z,11.92
2023-05-12T02:36:00.514Z,11.92
2023-05-12T02:37:00.513Z,11.92
2023-05-12T02:38:00.510Z,11.92
2023-05-12T02:39:00.562Z,11.92
2023-05-12T02:40:00.544Z,11.84
2023-05-12T02:41:00.537Z,11.84
2023-05-12T02:42:00.510Z,11.84
2023-05-12T02:43:00.625Z,11.84
2023-05-12T02:44:00.519Z,11.84
2023-05-12T02:45:00.550Z,11.75
2023-05-12T02:46:00.701Z,11.75
2023-05-12T02:47:00.519Z,11.75
2023-05-12T02:48:00.587Z,11.75
2023-05-12T02:49:00.570Z,11.75
2023-05-12T02:50:00.587Z,11.68
2023-05-12T02:51:00.533Z,11.68
2023-05-12T02:52:00.534Z,11.68
2023-05-12T02:53:00.523Z,11.68
2023-05-12T02:54:00.538Z,11.68
2023-05-12T02:55:00.511Z,11.60
2023-05-12T02:56:00.539Z,11.60
2023-05-12T02:57:03.145Z,11.60
2023-05-12T02:58:00.565Z,11.60
2023-05-12T02:59:00.582Z,11.60
2023-05-12T03:00:01.140Z,11.69
2023-05-12T03:01:09.836Z,11.69
2023-05-12T03:02:00.630Z,11.69
2023-05-12T03:03:00.585Z,11.69
2023-05-12T03:04:00.517Z,11.69
2023-05-12T03:05:00.727Z,11.70
2023-05-12T03:06:00.514Z,11.70
2023-05-12T03:07:00.513Z,11.70
2023-05-12T03:08:00.572Z,11.70
2023-05-12T03:09:00.586Z,11.70
2023-05-12T03:10:00.524Z,11.75
2023-05-12T03:11:00.598Z,11.75
2023-05-12T03:12:00.512Z,11.75
2023-05-12T03:13:00.470Z,11.75
2023-05-12T03:14:00.520Z,11.75
2023-05-12T03:15:00.751Z,11.73
2023-05-12T03:16:00.507Z,11.73
2023-05-12T03:17:00.618Z,11.73
2023-05-12T03:18:00.561Z,11.73
2023-05-12T03:19:00.630Z,11.73
2023-05-12T03:20:00.534Z,11.86
2023-05-12T03:21:00.571Z,11.86
2023-05-12T03:22:00.829Z,11.86
2023-05-12T03:23:00.555Z,11.86
2023-05-12T03:24:00.549Z,11.86
2023-05-12T03:25:00.526Z,11.88
2023-05-12T03:26:00.510Z,11.88
2023-05-12T03:27:00.536Z,11.88
2023-05-12T03:28:01.231Z,11.88
2023-05-12T03:29:00.514Z,11.88
2023-05-12T03:30:00.673Z,11.96
2023-05-12T03:31:00.654Z,11.96
2023-05-12T03:32:00.523Z,11.96
2023-05-12T03:33:00.616Z,11.96
2023-05-12T03:34:00.516Z,11.96
2023-05-12T03:35:00.514Z,12.00
2023-05-12T03:36:00.517Z,12.00
2023-05-12T03:37:00.514Z,12.00
2023-05-12T03:38:00.522Z,12.00
2023-05-12T03:39:00.524Z,12.00
2023-05-12T03:40:00.539Z,11.98
2023-05-12T03:41:02.247Z,11.98
2023-05-12T03:42:00.592Z,11.98
2023-05-12T03:43:00.503Z,11.98
2023-05-12T03:44:00.574Z,11.98
2023-05-12T03:45:00.516Z,12.01
2023-05-12T03:46:00.646Z,12.01
2023-05-12T03:47:00.686Z,12.01
2023-05-12T03:48:00.532Z,12.01
2023-05-12T03:49:00.527Z,12.01
2023-05-12T03:50:00.554Z,11.95
2023-05-12T03:51:00.512Z,11.95
2023-05-12T03:52:00.558Z,11.95
2023-05-12T03:53:00.537Z,11.95
2023-05-12T03:54:00.507Z,11.95
2023-05-12T03:55:00.510Z,12.11
2023-05-12T03:56:04.094Z,12.11
2023-05-12T03:57:00.597Z,12.11
2023-05-12T03:58:00.565Z,12.11
2023-05-12T03:59:00.537Z,12.11
2023-05-12T04:00:00.584Z,12.10
2023-05-12T04:01:00.569Z,12.10
2023-05-12T04:02:00.581Z,12.10
2023-05-12T04:03:00.640Z,12.10
2023-05-12T04:04:00.589Z,12.10
2023-05-12T04:05:00.536Z,12.19
2023-05-12T04:06:01.178Z,12.19
2023-05-12T04:07:00.508Z,12.19
2023-05-12T04:08:00.508Z,12.19
2023-05-12T04:09:00.580Z,12.19
2023-05-12T04:10:00.516Z,12.23
2023-05-12T04:11:00.814Z,12.23
2023-05-12T04:12:00.539Z,12.23
2023-05-12T04:13:00.513Z,12.23
2023-05-12T04:14:00.569Z,12.23
2023-05-12T04:15:00.522Z,12.17
2023-05-12T04:16:00.614Z,12.17
2023-05-12T04:17:00.571Z,12.17
2023-05-12T04:18:01.130Z,12.17
2023-05-12T04:19:00.974Z,12.17
2023-05-12T04:20:00.534Z,12.24
2023-05-12T04:21:00.873Z,12.24
2023-05-12T04:22:00.553Z,12.24
2023-05-12T04:23:00.525Z,12.24
2023-05-12T04:24:00.521Z,12.24
2023-05-12T04:25:00.540Z,12.30
2023-05-12T04:26:02.467Z,12.30
2023-05-12T04:27:00.565Z,12.30
2023-05-12T04:28:00.523Z,12.30
2023-05-12T04:29:00.594Z,12.30
2023-05-12T04:30:00.579Z,12.24
2023-05-12T04:31:02.257Z,12.24
2023-05-12T04:32:00.628Z,12.24
2023-05-12T04:33:00.640Z,12.24
2023-05-12T04:34:00.518Z,12.24
2023-05-12T04:35:00.654Z,12.20
2023-05-12T04:36:00.517Z,12.20
2023-05-12T04:37:00.556Z,12.20
2023-05-12T04:38:00.840Z,12.20
2023-05-12T04:39:00.554Z,12.20
2023-05-12T04:40:00.577Z,12.16
2023-05-12T04:41:00.559Z,12.16
2023-05-12T04:42:00.568Z,12.16
2023-05-12T04:43:00.569Z,12.16
2023-05-12T04:44:00.853Z,12.16
2023-05-12T04:45:00.507Z,12.20
2023-05-12T04:46:00.687Z,12.20
2023-05-12T04:47:00.552Z,12.20
2023-05-12T04:48:00.582Z,12.20
2023-05-12T04:49:00.563Z,12.20
2023-05-12T04:50:00.509Z,12.13
2023-05-12T04:51:00.529Z,12.13
2023-05-12T04:52:00.520Z,12.13
2023-05-12T04:53:00.520Z,12.13
2023-05-12T04:54:00.572Z,12.13
2023-05-12T04:55:00.577Z,12.15
2023-05-12T04:56:00.799Z,12.15
2023-05-12T04:57:00.523Z,12.15
2023-05-12T04:58:00.550Z,12.15
2023-05-12T04:59:00.511Z,12.15
2023-05-12T05:00:00.523Z,12.00
2023-05-12T05:01:00.545Z,12.00
2023-05-12T05:02:00.569Z,12.00
2023-05-12T05:03:00.752Z,12.00
2023-05-12T05:04:00.611Z,12.00
2023-05-12T05:05:00.522Z,11.84
2023-05-12T05:06:00.534Z,11.84
2023-05-12T05:07:00.583Z,11.84
2023-05-12T05:08:00.525Z,11.84
2023-05-12T05:09:00.574Z,11.84
2023-05-12T05:10:00.514Z,11.93
2023-05-12T05:11:00.519Z,11.93
2023-05-12T05:12:00.523Z,11.93
2023-05-12T05:13:00.512Z,11.93
2023-05-12T05:14:00.602Z,11.93
2023-05-12T05:15:00.539Z,11.74
2023-05-12T05:16:00.571Z,11.74
2023-05-12T05:17:00.517Z,11.74
2023-05-12T05:18:01.962Z,11.74
2023-05-12T05:19:03.874Z,11.74
2023-05-12T05:20:00.633Z,11.75
2023-05-12T05:21:00.621Z,11.75
2023-05-12T05:22:00.483Z,11.75
2023-05-12T05:23:00.521Z,11.75
2023-05-12T05:24:00.527Z,11.75
2023-05-12T05:25:00.534Z,11.72
2023-05-12T05:26:00.609Z,11.72
2023-05-12T05:27:00.528Z,11.72
2023-05-12T05:28:00.511Z,11.72
2023-05-12T05:29:00.567Z,11.72
2023-05-12T05:30:00.514Z,11.75
2023-05-12T05:31:00.599Z,11.75
2023-05-12T05:32:00.556Z,11.75
2023-05-12T05:33:00.676Z,11.75
2023-05-12T05:34:00.598Z,11.75
2023-05-12T05:35:00.612Z,11.74
2023-05-12T05:36:00.565Z,11.74
2023-05-12T05:37:00.521Z,11.74
2023-05-12T05:38:00.535Z,11.74
2023-05-12T05:39:00.527Z,11.74
2023-05-12T05:40:00.522Z,11.85
2023-05-12T05:41:00.548Z,11.85
2023-05-12T05:42:00.575Z,11.85
2023-05-12T05:43:00.556Z,11.85
2023-05-12T05:44:00.594Z,11.85
2023-05-12T05:45:00.520Z,11.89
2023-05-12T05:46:00.525Z,11.89
2023-05-12T05:47:00.564Z,11.89
2023-05-12T05:48:00.632Z,11.89
2023-05-12T05:49:00.523Z,11.89
2023-05-12T05:50:00.544Z,11.88
2023-05-12T05:51:00.556Z,11.88
2023-05-12T05:52:00.566Z,11.88
2023-05-12T05:53:00.515Z,11.88
2023-05-12T05:54:00.572Z,11.88
2023-05-12T05:55:00.558Z,12.00
2023-05-12T05:56:00.580Z,12.00
2023-05-12T05:57:00.523Z,12.00
2023-05-12T05:58:00.516Z,12.00
2023-05-12T05:59:00.954Z,12.00
2023-05-12T06:00:00.689Z,11.87
2023-05-12T06:01:00.565Z,11.87
2023-05-12T06:02:00.668Z,11.87
2023-05-12T06:03:00.642Z,11.87
2023-05-12T06:04:00.671Z,11.87
2023-05-12T06:05:00.561Z,11.89
2023-05-12T06:06:00.569Z,11.89
2023-05-12T06:07:00.536Z,11.89
2023-05-12T06:08:00.520Z,11.89
2023-05-12T06:09:00.516Z,11.89
2023-05-12T06:10:00.510Z,11.98
2023-05-12T06:11:00.507Z,11.98
2023-05-12T06:12:00.516Z,11.98
2023-05-12T06:13:00.524Z,11.98
2023-05-12T06:14:00.520Z,11.98
2023-05-12T06:15:00.509Z,11.80
2023-05-12T06:16:00.516Z,11.80
2023-05-12T06:17:00.598Z,11.80
2023-05-12T06:18:00.610Z,11.80
2023-05-12T06:19:00.621Z,11.80
2023-05-12T06:20:00.605Z,11.84
2023-05-12T06:21:00.515Z,11.84
2023-05-12T06:22:00.520Z,11.84
2023-05-12T06:23:00.562Z,11.84
2023-05-12T06:24:00.524Z,11.84
2023-05-12T06:25:00.606Z,11.99
2023-05-12T06:26:00.562Z,11.99
2023-05-12T06:27:00.515Z,11.99
2023-05-12T06:28:00.520Z,11.99
2023-05-12T06:29:00.520Z,11.99
2023-05-12T06:30:00.512Z,12.14
2023-05-12T06:31:00.615Z,12.14
2023-05-12T06:32:00.543Z,12.14
2023-05-12T06:33:00.626Z,12.14
2023-05-12T06:34:00.563Z,12.14
2023-05-12T06:35:00.512Z,12.06
2023-05-12T06:36:00.558Z,12.06
2023-05-12T06:37:00.568Z,12.06
2023-05-12T06:38:00.523Z,12.06
2023-05-12T06:39:00.865Z,12.06
2023-05-12T06:40:00.578Z,11.93
2023-05-12T06:41:00.541Z,11.93
2023-05-12T06:42:01.136Z,11.93
2023-05-12T06:43:00.532Z,11.93
2023-05-12T06:44:00.516Z,11.93
2023-05-12T06:45:00.573Z,11.88
2023-05-12T06:46:00.574Z,11.88
2023-05-12T06:47:00.523Z,11.88
2023-05-12T06:48:00.576Z,11.88
2023-05-12T06:49:00.598Z,11.88
2023-05-12T06:50:00.528Z,12.04
2023-05-12T06:51:00.529Z,12.04
2023-05-12T06:52:00.589Z,12.04
2023-05-12T06:53:00.757Z,12.04
2023-05-12T06:54:00.561Z,12.04
2023-05-12T06:55:00.543Z,11.93
2023-05-12T06:56:00.533Z,11.93
2023-05-12T06:57:00.521Z,11.93
2023-05-12T06:58:00.593Z,11.93
2023-05-12T06:59:00.520Z,11.93
2023-05-12T07:00:00.539Z,12.21
2023-05-12T07:01:00.632Z,12.21
2023-05-12T07:02:00.578Z,12.21
2023-05-12T07:03:00.558Z,12.21
2023-05-12T07:04:00.611Z,12.21
2023-05-12T07:05:00.651Z,12.09
2023-05-12T07:06:00.596Z,12.09
2023-05-12T07:07:00.626Z,12.09
2023-05-12T07:08:00.524Z,12.09
2023-05-12T07:09:00.589Z,12.09
2023-05-12T07:10:00.517Z,12.17
2023-05-12T07:11:00.748Z,12.17
2023-05-12T07:12:00.584Z,12.17
2023-05-12T07:13:00.529Z,12.17
2023-05-12T07:14:00.531Z,12.17
2023-05-12T07:15:00.474Z,11.93
2023-05-12T07:16:00.630Z,11.93
2023-05-12T07:17:00.516Z,11.93
2023-05-12T07:18:00.591Z,11.93
2023-05-12T07:19:00.587Z,11.93
2023-05-12T07:20:00.514Z,12.15
2023-05-12T07:21:00.517Z,12.15
2023-05-12T07:22:00.538Z,12.15
2023-05-12T07:23:00.561Z,12.15
2023-05-12T07:24:00.513Z,12.15
2023-05-12T07:25:00.637Z,11.80
2023-05-12T07:26:01.141Z,11.80
2023-05-12T07:27:00.509Z,11.80
2023-05-12T07:28:00.574Z,11.80
2023-05-12T07:29:00.641Z,11.80
2023-05-12T07:30:00.639Z,12.04
2023-05-12T07:31:00.881Z,12.04
2023-05-12T07:32:00.556Z,12.04
2023-05-12T07:33:00.610Z,12.04
2023-05-12T07:34:00.517Z,12.04
2023-05-12T07:35:00.508Z,12.10
2023-05-12T07:36:00.579Z,12.10
2023-05-12T07:37:00.532Z,12.10
2023-05-12T07:38:00.552Z,12.10
2023-05-12T07:39:00.515Z,12.10
2023-05-12T07:40:00.511Z,12.17
2023-05-12T07:41:00.546Z,12.17
2023-05-12T07:42:00.551Z,12.17
2023-05-12T07:43:00.508Z,12.17
2023-05-12T07:44:00.515Z,12.17
2023-05-12T07:45:00.604Z,12.39
2023-05-12T07:46:00.513Z,12.39
2023-05-12T07:47:00.602Z,12.39
2023-05-12T07:48:00.550Z,12.39
2023-05-12T07:49:00.771Z,12.39
2023-05-12T07:50:00.565Z,12.29
2023-05-12T07:51:00.475Z,12.29
2023-05-12T07:52:00.550Z,12.29
2023-05-12T07:53:00.520Z,12.29
2023-05-12T07:54:00.544Z,12.29
2023-05-12T07:55:00.543Z,12.30
2023-05-12T07:56:00.564Z,12.30
2023-05-12T07:57:00.524Z,12.30
2023-05-12T07:58:00.578Z,12.30
2023-05-12T07:59:00.533Z,12.30
2023-05-12T08:00:00.547Z,12.27
2023-05-12T08:01:00.530Z,12.27
2023-05-12T08:02:00.616Z,12.27
2023-05-12T08:03:00.806Z,12.27
2023-05-12T08:04:00.679Z,12.27
2023-05-12T08:05:00.566Z,12.13
2023-05-12T08:06:00.524Z,12.13
2023-05-12T08:07:00.477Z,12.13
2023-05-12T08:08:00.514Z,12.13
2023-05-12T08:09:00.555Z,12.13
2023-05-12T08:10:01.116Z,12.32
2023-05-12T08:11:00.516Z,12.32
2023-05-12T08:12:00.609Z,12.32
2023-05-12T08:13:00.553Z,12.32
2023-05-12T08:14:00.608Z,12.32
2023-05-12T08:15:00.554Z,12.37
2023-05-12T08:16:00.564Z,12.37
2023-05-12T08:17:00.604Z,12.37
2023-05-12T08:18:00.578Z,12.37
2023-05-12T08:19:00.584Z,12.37
2023-05-12T08:20:00.563Z,12.51
2023-05-12T08:21:00.531Z,12.51
2023-05-12T08:22:00.513Z,12.51
2023-05-12T08:23:00.530Z,12.51
2023-05-12T08:24:00.509Z,12.51
2023-05-12T08:25:00.543Z,12.60
2023-05-12T08:26:00.530Z,12.60
2023-05-12T08:27:00.550Z,12.60
2023-05-12T08:28:00.760Z,12.60
2023-05-12T08:29:00.552Z,12.60
2023-05-12T08:30:00.530Z,12.30
2023-05-12T08:31:04.077Z,12.30
2023-05-12T08:32:01.361Z,12.30
2023-05-12T08:33:01.524Z,12.30
2023-05-12T08:34:09.881Z,12.30
2023-05-12T08:35:00.554Z,12.62
2023-05-12T08:36:00.764Z,12.62
2023-05-12T08:37:00.665Z,12.62
2023-05-12T08:38:00.623Z,12.62
2023-05-12T08:39:01.257Z,12.62
2023-05-12T08:40:00.599Z,12.74
2023-05-12T08:41:03.767Z,12.74
2023-05-12T08:42:06.401Z,12.74
2023-05-12T08:43:10.377Z,12.74
2023-05-12T08:44:01.183Z,12.74
2023-05-12T08:45:01.118Z,12.84
2023-05-12T08:46:00.584Z,12.84
2023-05-12T08:47:00.935Z,12.84
2023-05-12T08:48:01.767Z,12.84
2023-05-12T08:49:02.000Z,12.84
2023-05-12T08:50:01.747Z,12.67
2023-05-12T08:51:01.580Z,12.67
2023-05-12T08:52:00.852Z,12.67
2023-05-12T08:53:01.788Z,12.67
2023-05-12T08:54:02.637Z,12.67
2023-05-12T08:55:01.064Z,12.62
2023-05-12T08:57:09.280Z,12.62
2023-05-12T08:58:01.789Z,12.62
2023-05-12T08:59:01.933Z,12.62
2023-05-12T09:00:01.206Z,12.74
2023-05-12T09:01:02.126Z,12.74
2023-05-12T09:02:01.154Z,12.74
2023-05-12T09:03:01.328Z,12.74
2023-05-12T09:04:00.680Z,12.74
2023-05-12T09:05:00.556Z,12.98
2023-05-12T09:06:00.836Z,12.98
2023-05-12T09:07:00.555Z,12.98
2023-05-12T09:08:00.865Z,12.98
2023-05-12T09:09:01.725Z,12.98
2023-05-12T09:10:03.351Z,13.24
2023-05-12T09:11:00.884Z,13.24
2023-05-12T09:12:01.040Z,13.24
2023-05-12T09:13:02.833Z,13.24
2023-05-12T09:14:03.285Z,13.24
2023-05-12T09:15:03.824Z,13.24
2023-05-12T09:16:01.434Z,13.24
2023-05-12T09:17:02.924Z,13.24
2023-05-12T09:18:00.537Z,13.24
2023-05-12T09:19:00.857Z,13.24
2023-05-12T09:20:00.593Z,13.54
2023-05-12T09:21:00.840Z,13.54
2023-05-12T09:22:00.647Z,13.54
2023-05-12T09:23:10.380Z,13.54
2023-05-12T09:24:01.638Z,13.54
2023-05-12T09:25:00.550Z,13.33
2023-05-12T09:26:00.609Z,13.33
2023-05-12T09:27:00.571Z,13.33
2023-05-12T09:28:00.745Z,13.33
2023-05-12T09:29:04.532Z,13.33
2023-05-12T09:30:00.509Z,13.50
2023-05-12T09:31:00.668Z,13.50
2023-05-12T09:32:02.559Z,13.50
2023-05-12T09:33:08.835Z,13.50
2023-05-12T09:34:05.438Z,13.50
2023-05-12T09:35:01.043Z,13.58
2023-05-12T09:36:00.521Z,13.58
2023-05-12T09:37:01.380Z,13.58
2023-05-12T09:38:04.581Z,13.58
2023-05-12T09:39:01.287Z,13.58
2023-05-12T09:40:01.120Z,13.48
2023-05-12T09:41:00.556Z,13.48
2023-05-12T09:42:00.631Z,13.48
2023-05-12T09:43:00.586Z,13.48
2023-05-12T09:44:00.574Z,13.48
2023-05-12T09:45:08.066Z,13.36
2023-05-12T09:46:05.182Z,13.36
2023-05-12T09:47:08.035Z,13.36
2023-05-12T09:48:06.622Z,13.36
2023-05-12T09:49:00.744Z,13.36
2023-05-12T09:50:01.316Z,13.44
2023-05-12T09:51:00.531Z,13.44
2023-05-12T09:52:02.843Z,13.44
2023-05-12T09:53:00.532Z,13.44
2023-05-12T09:54:00.554Z,13.44
2023-05-12T09:55:05.522Z,13.59
2023-05-12T09:56:00.510Z,13.59
2023-05-12T09:57:01.894Z,13.59
2023-05-12T09:58:01.029Z,13.59
2023-05-12T09:59:02.377Z,13.59
2023-05-12T10:00:01.603Z,13.65
2023-05-12T10:01:21.074Z,13.65
2023-05-12T10:02:01.576Z,13.65
2023-05-12T10:03:02.084Z,13.65
2023-05-12T10:04:00.712Z,13.65
2023-05-12T10:05:01.913Z,13.52
2023-05-12T10:06:01.757Z,13.52
2023-05-12T10:07:00.546Z,13.52
2023-05-12T10:08:02.275Z,13.52
2023-05-12T10:09:01.503Z,13.52
2023-05-12T10:10:02.156Z,13.49
2023-05-12T10:11:01.255Z,13.49
2023-05-12T10:12:01.783Z,13.49
2023-05-12T10:13:00.555Z,13.49
2023-05-12T10:14:00.578Z,13.49
2023-05-12T10:15:01.724Z,13.56
2023-05-12T10:16:01.594Z,13.56
2023-05-12T10:17:00.769Z,13.56
2023-05-12T10:18:00.688Z,13.56
2023-05-12T10:19:01.705Z,13.56
2023-05-12T10:20:01.203Z,13.74
2023-05-12T10:21:01.224Z,13.74
2023-05-12T10:22:00.574Z,13.74
2023-05-12T10:23:00.998Z,13.74
2023-05-12T10:24:01.898Z,13.74
2023-05-12T10:25:00.948Z,13.71
2023-05-12T10:26:00.597Z,13.71
2023-05-12T10:27:00.553Z,13.71
2023-05-12T10:28:01.275Z,13.71
2023-05-12T10:29:00.778Z,13.71
2023-05-12T10:30:01.510Z,13.96
2023-05-12T10:31:01.771Z,13.96
2023-05-12T10:32:00.549Z,13.96
2023-05-12T10:33:00.800Z,13.96
2023-05-12T10:34:01.624Z,13.96
2023-05-12T10:35:08.670Z,13.98
2023-05-12T10:36:00.584Z,13.98
2023-05-12T10:37:03.014Z,13.98
2023-05-12T10:38:01.310Z,13.98
2023-05-12T10:39:04.247Z,13.98
2023-05-12T10:40:00.542Z,13.90
2023-05-12T10:41:01.514Z,13.90
2023-05-12T10:42:01.315Z,13.90
2023-05-12T10:43:00.577Z,13.90
2023-05-12T10:44:00.722Z,13.90
2023-05-12T10:45:00.520Z,13.80
2023-05-12T10:46:07.785Z,13.80
2023-05-12T10:47:00.616Z,13.80
2023-05-12T10:48:04.488Z,13.80
2023-05-12T10:49:01.710Z,13.80
2023-05-12T10:50:00.535Z,14.09
2023-05-12T10:51:08.380Z,14.09
2023-05-12T10:52:00.514Z,14.09
2023-05-12T10:53:00.544Z,14.09
2023-05-12T10:54:01.507Z,14.09
2023-05-12T10:55:01.375Z,13.90
2023-05-12T10:56:04.094Z,13.90
2023-05-12T10:57:00.883Z,13.90
2023-05-12T10:58:10.731Z,13.90
2023-05-12T10:59:08.156Z,13.90
2023-05-12T11:00:01.661Z,13.90
2023-05-12T11:01:05.513Z,13.90
2023-05-12T11:02:03.957Z,13.90
2023-05-12T11:03:08.162Z,13.90
2023-05-12T11:04:10.579Z,13.90
2023-05-12T11:05:01.530Z,13.95
2023-05-12T11:06:05.086Z,13.95
2023-05-12T11:07:01.157Z,13.95
2023-05-12T11:08:00.862Z,13.95
2023-05-12T11:09:01.167Z,13.95
2023-05-12T11:10:01.917Z,14.06
2023-05-12T11:11:00.668Z,14.06
2023-05-12T11:12:00.710Z,14.06
2023-05-12T11:13:01.196Z,14.06
2023-05-12T11:14:01.124Z,14.06
2023-05-12T11:15:00.963Z,14.02
2023-05-12T11:16:00.562Z,14.02
2023-05-12T11:17:00.630Z,14.02
2023-05-12T11:18:01.892Z,14.02
2023-05-12T11:19:01.499Z,14.02
2023-05-12T11:20:00.560Z,14.01
2023-05-12T11:21:07.719Z,14.01
2023-05-12T11:22:04.388Z,14.01
2023-05-12T11:23:00.522Z,14.01
2023-05-12T11:24:01.356Z,14.01
2023-05-12T11:25:08.218Z,14.19
2023-05-12T11:26:00.588Z,14.19
2023-05-12T11:27:00.687Z,14.19
2023-05-12T11:28:00.548Z,14.19
2023-05-12T11:29:02.412Z,14.19
2023-05-12T11:30:01.378Z,13.80
2023-05-12T11:31:00.518Z,13.80
2023-05-12T11:32:00.722Z,13.80
2023-05-12T11:33:01.165Z,13.80
2023-05-12T11:34:12.579Z,13.80
2023-05-12T11:35:10.387Z,13.87
2023-05-12T11:36:03.409Z,13.87
2023-05-12T11:37:02.648Z,13.87
2023-05-12T11:38:00.526Z,13.87
2023-05-12T11:39:00.523Z,13.87
2023-05-12T11:40:00.508Z,13.61
2023-05-12T11:41:00.584Z,13.61
2023-05-12T11:42:12.294Z,13.61
2023-05-12T11:43:07.970Z,13.61
2023-05-12T11:44:10.395Z,13.61
2023-05-12T11:45:00.534Z,13.36
2023-05-12T11:46:00.617Z,13.36
2023-05-12T11:47:01.891Z,13.36
2023-05-12T11:48:09.279Z,13.36
2023-05-12T11:49:00.564Z,13.36
2023-05-12T11:50:02.121Z,13.43
2023-05-12T11:51:01.324Z,13.43
2023-05-12T11:52:01.244Z,13.43
2023-05-12T11:53:00.570Z,13.43
2023-05-12T11:54:00.555Z,13.43
2023-05-12T11:55:00.574Z,13.60
2023-05-12T11:56:00.526Z,13.60
2023-05-12T11:57:00.526Z,13.60
2023-05-12T11:58:00.912Z,13.60
2023-05-12T11:59:00.561Z,13.60
2023-05-12T12:00:02.930Z,13.63
2023-05-12T12:01:08.349Z,13.63
2023-05-12T12:02:01.666Z,13.63
2023-05-12T12:03:04.986Z,13.63
2023-05-12T12:04:00.588Z,13.63
2023-05-12T12:05:00.540Z,13.58
2023-05-12T12:06:01.438Z,13.58
2023-05-12T12:07:00.557Z,13.58
2023-05-12T12:08:09.130Z,13.58
2023-05-12T12:09:00.529Z,13.58
2023-05-12T12:10:10.376Z,13.73
2023-05-12T12:11:03.389Z,13.73
2023-05-12T12:12:01.294Z,13.73
2023-05-12T12:13:00.564Z,13.73
2023-05-12T12:14:00.516Z,13.73
2023-05-12T12:15:00.511Z,13.57
2023-05-12T12:16:00.547Z,13.57
2023-05-12T12:17:00.954Z,13.57
2023-05-12T12:18:00.585Z,13.57
2023-05-12T12:19:00.557Z,13.57
2023-05-12T12:20:00.541Z,14.07
2023-05-12T12:21:00.555Z,14.07
2023-05-12T12:22:00.524Z,14.07
2023-05-12T12:23:00.536Z,14.07
2023-05-12T12:24:00.527Z,14.07
2023-05-12T12:25:00.796Z,13.83
2023-05-12T12:26:00.523Z,13.83
2023-05-12T12:27:00.548Z,13.83
2023-05-12T12:28:00.547Z,13.83
2023-05-12T12:29:00.515Z,13.83
2023-05-12T12:30:00.507Z,13.57
2023-05-12T12:31:00.565Z,13.57
2023-05-12T12:32:00.584Z,13.57
2023-05-12T12:33:00.634Z,13.57
2023-05-12T12:34:00.582Z,13.57
2023-05-12T12:35:00.520Z,13.48
2023-05-12T12:36:00.524Z,13.48
2023-05-12T12:37:00.516Z,13.48
2023-05-12T12:38:00.588Z,13.48
2023-05-12T12:39:00.633Z,13.48
2023-05-12T12:40:00.552Z,13.57
2023-05-12T12:41:00.558Z,13.57
2023-05-12T12:42:00.575Z,13.57
2023-05-12T12:43:00.556Z,13.57
2023-05-12T12:44:00.532Z,13.57
2023-05-12T12:45:01.092Z,13.55
2023-05-12T12:46:00.574Z,13.55
2023-05-12T12:47:00.570Z,13.55
2023-05-12T12:48:00.741Z,13.55
2023-05-12T12:49:00.540Z,13.55
2023-05-12T12:50:00.524Z,13.48
2023-05-12T12:51:00.726Z,13.48
2023-05-12T12:52:00.525Z,13.48
2023-05-12T12:53:00.517Z,13.48